Terminal Aerodrome Forecast
Issued by NWS Lake Charles, LA

Home | Current Version | Previous Version | Text Only | Print | Product List | Glossary On
Versions: 1 2 3 4 5 6 7 8 9 10 11 12 13 14 15 16 17 18 19
031
FTUS44 KLCH 122320
TAFARA
TAF
KARA 122320Z 1300/1324 27007KT P6SM SCT040
     FM130400 36005KT P6SM SCT030
     FM130700 03006KT P6SM SKC
     FM131500 06012KT P6SM SKC=

USA.gov is the U.S. government's official web portal to all federal, state and local government web resources and services.